地図

経路データ

SID SEASON NUMBER BASIN SUBBASIN NAME ISO_TIME NATURE LAT LON WMO_WIND WMO_PRES WMO_AGENCY TRACK_TYPE DIST2LAND LANDFALL IFLAG USA_AGENCY USA_ATCF_ID USA_LAT USA_LON USA_RECORD USA_STATUS USA_WIND USA_PRES USA_SSHS USA_R34_NE USA_R34_SE USA_R34_SW USA_R34_NW USA_R50_NE USA_R50_SE USA_R50_SW USA_R50_NW USA_R64_NE USA_R64_SE USA_R64_SW USA_R64_NW USA_POCI USA_ROCI USA_RMW USA_EYE TOKYO_LAT TOKYO_LON TOKYO_GRADE TOKYO_WIND TOKYO_PRES TOKYO_R50_DIR TOKYO_R50_LONG TOKYO_R50_SHORT TOKYO_R30_DIR TOKYO_R30_LONG TOKYO_R30_SHORT TOKYO_LAND CMA_LAT CMA_LON CMA_CAT CMA_WIND CMA_PRES HKO_LAT HKO_LON HKO_CAT HKO_WIND HKO_PRES NEWDELHI_LAT NEWDELHI_LON NEWDELHI_GRADE NEWDELHI_WIND NEWDELHI_PRES NEWDELHI_CI NEWDELHI_DP NEWDELHI_POCI REUNION_LAT REUNION_LON REUNION_TYPE REUNION_WIND REUNION_PRES REUNION_TNUM REUNION_CI REUNION_RMW REUNION_R34_NE REUNION_R34_SE REUNION_R34_SW REUNION_R34_NW REUNION_R50_NE REUNION_R50_SE REUNION_R50_SW REUNION_R50_NW REUNION_R64_NE REUNION_R64_SE REUNION_R64_SW REUNION_R64_NW BOM_LAT BOM_LON BOM_TYPE BOM_WIND BOM_PRES BOM_TNUM BOM_CI BOM_RMW BOM_R34_NE BOM_R34_SE BOM_R34_SW BOM_R34_NW BOM_R50_NE BOM_R50_SE BOM_R50_SW BOM_R50_NW BOM_R64_NE BOM_R64_SE BOM_R64_SW BOM_R64_NW BOM_ROCI BOM_POCI BOM_EYE BOM_POS_METHOD BOM_PRES_METHOD NADI_LAT NADI_LON NADI_CAT NADI_WIND NADI_PRES WELLINGTON_LAT WELLINGTON_LON WELLINGTON_WIND WELLINGTON_PRES DS824_LAT DS824_LON DS824_STAGE DS824_WIND DS824_PRES TD9636_LAT TD9636_LON TD9636_STAGE TD9636_WIND TD9636_PRES TD9635_LAT TD9635_LON TD9635_WIND TD9635_PRES TD9635_ROCI NEUMANN_LAT NEUMANN_LON NEUMANN_CLASS NEUMANN_WIND NEUMANN_PRES MLC_LAT MLC_LON MLC_CLASS MLC_WIND MLC_PRES USA_GUST BOM_GUST BOM_GUST_PER REUNION_GUST REUNION_GUST_PER USA_SEAHGT USA_SEARAD_NE USA_SEARAD_SE USA_SEARAD_SW USA_SEARAD_NW STORM_SPEED STORM_DIR
1955219N16319 1955 52 NA NA DIANE 1955-08-07 06:00:00 TS 15.7000 -41.2000 25 hurdat_atl main 1688 1661 O_____________ hurdat_atl AL031955 15.7000 -41.2000 TD 25 -1 13 285
1955219N16319 1955 52 NA NA DIANE 1955-08-07 09:00:00 TS 15.8704 -41.8522 main 1656 1625 P_____________ AL031955 15.8704 -41.8522 TD 25 -1 13 283
1955219N16319 1955 52 NA NA DIANE 1955-08-07 12:00:00 TS 16.0000 -42.5000 25 hurdat_atl main 1625 1596 O_____________ hurdat_atl AL031955 16.0000 -42.5000 TD 25 -1 13 279
1955219N16319 1955 52 NA NA DIANE 1955-08-07 15:00:00 TS 16.0647 -43.1427 main 1596 1553 P_____________ AL031955 16.0647 -43.1427 TD 25 -1 13 275
1955219N16319 1955 52 NA NA DIANE 1955-08-07 18:00:00 TS 16.1000 -43.8000 25 hurdat_atl main 1553 1507 O_____________ hurdat_atl AL031955 16.1000 -43.8000 TD 25 -1 13 274
1955219N16319 1955 52 NA NA DIANE 1955-08-07 21:00:00 TS 16.1498 -44.4925 main 1507 1473 P_____________ AL031955 16.1498 -44.4925 TD 25 -1 13 274
1955219N16319 1955 52 NA NA DIANE 1955-08-08 00:00:00 TS 16.2000 -45.2000 25 hurdat_atl main 1473 1432 O_____________ hurdat_atl AL031955 16.2000 -45.2000 TD 25 -1 14 274
1955219N16319 1955 52 NA NA DIANE 1955-08-08 03:00:00 TS 16.2423 -45.9001 main 1432 1405 P_____________ AL031955 16.2423 -45.9001 TD 25 -1 13 274
1955219N16319 1955 52 NA NA DIANE 1955-08-08 06:00:00 TS 16.3000 -46.6000 25 hurdat_atl main 1405 1385 O_____________ hurdat_atl AL031955 16.3000 -46.6000 TD 25 -1 13 277
1955219N16319 1955 52 NA NA DIANE 1955-08-08 09:00:00 TS 16.3995 -47.2775 main 1380 1359 P_____________ AL031955 16.3995 -47.2775 TD 25 -1 14 278
1955219N16319 1955 52 NA NA DIANE 1955-08-08 12:00:00 TS 16.5000 -48.0000 25 hurdat_atl main 1359 1329 O_____________ hurdat_atl AL031955 16.5000 -48.0000 TD 25 -1 15 276
1955219N16319 1955 52 NA NA DIANE 1955-08-08 15:00:00 TS 16.5580 -48.8801 main 1330 1294 P_____________ AL031955 16.5580 -48.8801 TD 25 -1 16 274
1955219N16319 1955 52 NA NA DIANE 1955-08-08 18:00:00 TS 16.6000 -49.7000 25 hurdat_atl main 1294 1275 O_____________ hurdat_atl AL031955 16.6000 -49.7000 TD 25 -1 13 274
1955219N16319 1955 52 NA NA DIANE 1955-08-08 21:00:00 TS 16.6493 -50.2376 main 1275 1268 P_____________ AL031955 16.6493 -50.2376 TD 25 -1 10 276
1955219N16319 1955 52 NA NA DIANE 1955-08-09 00:00:00 TS 16.7000 -50.7000 25 hurdat_atl main 1268 1244 O_____________ hurdat_atl AL031955 16.7000 -50.7000 TD 25 -1 10 275
1955219N16319 1955 52 NA NA DIANE 1955-08-09 03:00:00 TS 16.7424 -51.2851 main 1244 1196 P_____________ AL031955 16.7424 -51.2851 TD 27 -1 12 275
1955219N16319 1955 52 NA NA DIANE 1955-08-09 06:00:00 TS 16.8000 -51.9000 30 hurdat_atl main 1196 1150 O_____________ hurdat_atl AL031955 16.8000 -51.9000 TD 30 -1 12 277
1955219N16319 1955 52 NA NA DIANE 1955-08-09 09:00:00 TS 16.8847 -52.4851 main 1150 1106 P_____________ AL031955 16.8847 -52.4851 TD 30 -1 12 280
1955219N16319 1955 52 NA NA DIANE 1955-08-09 12:00:00 TS 17.0000 -53.1000 30 hurdat_atl main 1106 1064 O_____________ hurdat_atl AL031955 17.0000 -53.1000 TD 30 -1 13 281
1955219N16319 1955 52 NA NA DIANE 1955-08-09 15:00:00 TS 17.1348 -53.7776 main 1056 1018 P_____________ AL031955 17.1348 -53.7776 TD 32 -1 14 283
1955219N16319 1955 52 NA NA DIANE 1955-08-09 18:00:00 TS 17.3000 -54.5000 35 hurdat_atl main 1018 983 O_____________ hurdat_atl AL031955 17.3000 -54.5000 TS 35 0 15 284
1955219N16319 1955 52 NA NA DIANE 1955-08-09 21:00:00 TS 17.4849 -55.2501 main 978 951 P_____________ AL031955 17.4849 -55.2501 TS 35 0 15 286
1955219N16319 1955 52 NA NA DIANE 1955-08-10 00:00:00 TS 17.7000 -56.0000 35 hurdat_atl main 951 929 O_____________ hurdat_atl AL031955 17.7000 -56.0000 TS 35 0 15 287
1955219N16319 1955 52 NA NA DIANE 1955-08-10 03:00:00 TS 17.9198 -56.7228 main 929 866 P_____________ AL031955 17.9198 -56.7228 TS 35 0 14 291
1955219N16319 1955 52 NA NA DIANE 1955-08-10 06:00:00 TS 18.2000 -57.4000 35 hurdat_atl main 866 801 O_____________ hurdat_atl AL031955 18.2000 -57.4000 TS 35 0 14 297
1955219N16319 1955 52 NA NA DIANE 1955-08-10 09:00:00 TS 18.5624 -58.0376 main 801 740 P_____________ AL031955 18.5624 -58.0376 TS 35 0 14 305
1955219N16319 1955 52 NA NA DIANE 1955-08-10 12:00:00 TS 19.0000 -58.6000 35 hurdat_atl main 740 692 O_____________ hurdat_atl AL031955 19.0000 -58.6000 TS 35 0 14 312
1955219N16319 1955 52 NA NA DIANE 1955-08-10 15:00:00 TS 19.4699 -59.1026 main 694 662 P_____________ AL031955 19.4699 -59.1026 TS 37 0 13 320
1955219N16319 1955 52 NA NA DIANE 1955-08-10 18:00:00 TS 20.0000 -59.5000 40 hurdat_atl main 665 654 O_____________ hurdat_atl AL031955 20.0000 -59.5000 TS 40 0 13 331
1955219N16319 1955 52 NA NA DIANE 1955-08-10 21:00:00 TS 20.5923 -59.7730 main 655 654 P_____________ AL031955 20.5923 -59.7730 TS 42 0 13 339
1955219N16319 1955 52 NA NA DIANE 1955-08-11 00:00:00 TS 21.2000 -60.0000 45 hurdat_atl main 664 660 O_____________ hurdat_atl AL031955 21.2000 -60.0000 TS 45 0 13 338
1955219N16319 1955 52 NA NA DIANE 1955-08-11 03:00:00 TS 21.7649 -60.2852 main 671 669 P_____________ AL031955 21.7649 -60.2852 TS 45 0 12 333
1955219N16319 1955 52 NA NA DIANE 1955-08-11 06:00:00 TS 22.3000 -60.6000 45 hurdat_atl main 679 678 O_____________ hurdat_atl AL031955 22.3000 -60.6000 TS 45 0 13 330
1955219N16319 1955 52 NA NA DIANE 1955-08-11 09:00:00 TS 22.8450 -60.9573 main 686 686 P_____________ AL031955 22.8450 -60.9573 TS 45 0 12 327
1955219N16319 1955 52 NA NA DIANE 1955-08-11 12:00:00 TS 23.3000 -61.3000 45 hurdat_atl main 706 702 O_____________ hurdat_atl AL031955 23.3000 -61.3000 TS 45 0 10 321
1955219N16319 1955 52 NA NA DIANE 1955-08-11 15:00:00 TS 23.5950 -61.6176 main 714 708 P_____________ AL031955 23.5950 -61.6176 TS 45 0 7 317
1955219N16319 1955 52 NA NA DIANE 1955-08-11 18:00:00 TS 23.8000 -61.8000 45 1004 hurdat_atl main 720 720 O_____________ hurdat_atl AL031955 23.8000 -61.8000 TS 45 1004 0 4 343
1955219N16319 1955 52 NA NA DIANE 1955-08-11 21:00:00 TS 24.0075 -61.7527 main 739 739 P_____________ AL031955 24.0075 -61.7527 TS 47 0 4 24
1955219N16319 1955 52 NA NA DIANE 1955-08-12 00:00:00 TS 24.2000 -61.6000 50 hurdat_atl main 769 769 O_____________ hurdat_atl AL031955 24.2000 -61.6000 TS 50 0 5 30
1955219N16319 1955 52 NA NA DIANE 1955-08-12 03:00:00 TS 24.4000 -61.5000 main 793 793 P_____________ AL031955 24.4000 -61.5000 TS 55 0 4 24
1955219N16319 1955 52 NA NA DIANE 1955-08-12 06:00:00 TS 24.6000 -61.4000 60 hurdat_atl main 817 817 O_____________ hurdat_atl AL031955 24.6000 -61.4000 TS 60 0 4 25
1955219N16319 1955 52 NA NA DIANE 1955-08-12 09:00:00 TS 24.7925 -61.2999 main 842 842 P_____________ AL031955 24.7925 -61.2999 TS 65 1 4 24
1955219N16319 1955 52 NA NA DIANE 1955-08-12 12:00:00 TS 25.0000 -61.2000 70 hurdat_atl main 866 866 O_____________ hurdat_atl AL031955 25.0000 -61.2000 HU 70 1 5 22
1955219N16319 1955 52 NA NA DIANE 1955-08-12 15:00:00 TS 25.2425 -61.1000 main 890 890 P_____________ AL031955 25.2425 -61.1000 HU 72 1 5 20
1955219N16319 1955 52 NA NA DIANE 1955-08-12 18:00:00 TS 25.5000 -61.0000 75 975 hurdat_atl main 924 924 O_____________ hurdat_atl AL031955 25.5000 -61.0000 HU 75 975 1 5 23
1955219N16319 1955 52 NA NA DIANE 1955-08-12 21:00:00 TS 25.7350 -60.8702 main 948 948 P_____________ AL031955 25.7350 -60.8702 HU 72 977 1 5 20
1955219N16319 1955 52 NA NA DIANE 1955-08-13 00:00:00 TS 26.0000 -60.8000 70 980 hurdat_atl main 982 982 O_____________ hurdat_atl AL031955 26.0000 -60.8000 HU 70 980 1 6 2
1955219N16319 1955 52 NA NA DIANE 1955-08-13 03:00:00 TS 26.3425 -60.8549 main 1006 1006 P_____________ AL031955 26.3425 -60.8549 HU 70 1 7 345
1955219N16319 1955 52 NA NA DIANE 1955-08-13 06:00:00 TS 26.7000 -61.0000 70 hurdat_atl main 1040 1040 O_____________ hurdat_atl AL031955 26.7000 -61.0000 HU 70 1 7 341
1955219N16319 1955 52 NA NA DIANE 1955-08-13 09:00:00 TS 27.0446 -61.1250 main 1066 1066 P_____________ AL031955 27.0446 -61.1250 HU 75 1 7 329
1955219N16319 1955 52 NA NA DIANE 1955-08-13 12:00:00 TS 27.3000 -61.4000 80 hurdat_atl main 1083 1074 O_____________ hurdat_atl AL031955 27.3000 -61.4000 HU 80 1 8 297
1955219N16319 1955 52 NA NA DIANE 1955-08-13 15:00:00 TS 27.4103 -61.9399 main 1074 1051 P_____________ AL031955 27.4103 -61.9399 HU 85 2 11 275
1955219N16319 1955 52 NA NA DIANE 1955-08-13 18:00:00 TS 27.4000 -62.6000 90 969 hurdat_atl main 1051 1024 O_____________ hurdat_atl AL031955 27.4000 -62.6000 HU 90 969 2 11 264
1955219N16319 1955 52 NA NA DIANE 1955-08-13 21:00:00 TS 27.3000 -63.2231 main 1024 1000 P_____________ AL031955 27.3000 -63.2231 HU 90 970 2 11 259
1955219N16319 1955 52 NA NA DIANE 1955-08-14 00:00:00 TS 27.2000 -63.8000 90 hurdat_atl main 1000 994 I_____________ hurdat_atl AL031955 27.2000 -63.8000 HU 90 972 2 9 265
1955219N16319 1955 52 NA NA DIANE 1955-08-14 03:00:00 TS 27.2195 -64.2648 main 992 991 P_____________ AL031955 27.2195 -64.2648 HU 85 974 2 8 277
1955219N16319 1955 52 NA NA DIANE 1955-08-14 06:00:00 TS 27.3000 -64.7000 80 976 hurdat_atl main 999 995 O_____________ hurdat_atl AL031955 27.3000 -64.7000 HU 80 976 1 8 281
1955219N16319 1955 52 NA NA DIANE 1955-08-14 09:00:00 TS 27.3848 -65.1851 main 997 984 P_____________ AL031955 27.3848 -65.1851 HU 77 978 1 9 283
1955219N16319 1955 52 NA NA DIANE 1955-08-14 12:00:00 TS 27.5000 -65.7000 75 980 hurdat_atl main 985 974 O_____________ hurdat_atl AL031955 27.5000 -65.7000 HU 75 980 1 10 285
1955219N16319 1955 52 NA NA DIANE 1955-08-14 15:00:00 TS 27.6347 -66.2277 main 974 967 P_____________ AL031955 27.6347 -66.2277 HU 75 1 10 287
1955219N16319 1955 52 NA NA DIANE 1955-08-14 18:00:00 TS 27.8000 -66.8000 75 hurdat_atl main 967 944 O_____________ hurdat_atl AL031955 27.8000 -66.8000 HU 75 1 11 288
1955219N16319 1955 52 NA NA DIANE 1955-08-14 21:00:00 TS 27.9848 -67.4277 main 947 925 P_____________ AL031955 27.9848 -67.4277 HU 75 1 12 289
1955219N16319 1955 52 NA NA DIANE 1955-08-15 00:00:00 TS 28.2000 -68.1000 75 hurdat_atl main 925 909 O_____________ hurdat_atl AL031955 28.2000 -68.1000 HU 75 1 13 291
1955219N16319 1955 52 NA NA DIANE 1955-08-15 03:00:00 TS 28.4423 -68.7926 main 909 905 P_____________ AL031955 28.4423 -68.7926 HU 77 1 13 292
1955219N16319 1955 52 NA NA DIANE 1955-08-15 06:00:00 TS 28.7000 -69.5000 80 973 hurdat_atl main 908 878 O_____________ hurdat_atl AL031955 28.7000 -69.5000 HU 80 973 1 13 292
1955219N16319 1955 52 NA NA DIANE 1955-08-15 09:00:00 TS 28.9496 -70.2003 main 878 808 P_____________ AL031955 28.9496 -70.2003 HU 80 973 1 13 292
1955219N16319 1955 52 NA NA DIANE 1955-08-15 12:00:00 TS 29.2000 -70.9000 80 hurdat_atl main 808 740 I_____________ hurdat_atl AL031955 29.2000 -70.9000 HU 80 973 1 13 293
1955219N16319 1955 52 NA NA DIANE 1955-08-15 15:00:00 TS 29.4650 -71.6224 main 740 682 P_____________ AL031955 29.4650 -71.6224 HU 80 973 1 13 292
1955219N16319 1955 52 NA NA DIANE 1955-08-15 18:00:00 TS 29.7000 -72.3000 80 973 hurdat_atl main 682 642 O_____________ hurdat_atl AL031955 29.7000 -72.3000 HU 80 973 1 12 290
1955219N16319 1955 52 NA NA DIANE 1955-08-15 21:00:00 TS 29.8570 -72.8806 main 632 599 P_____________ AL031955 29.8570 -72.8806 HU 77 1 10 287
1955219N16319 1955 52 NA NA DIANE 1955-08-16 00:00:00 TS 30.0000 -73.4000 75 hurdat_atl main 599 557 O_____________ hurdat_atl AL031955 30.0000 -73.4000 HU 75 1 10 290
1955219N16319 1955 52 NA NA DIANE 1955-08-16 03:00:00 TS 30.1848 -73.9152 main 557 516 P_____________ AL031955 30.1848 -73.9152 HU 75 1 10 295
1955219N16319 1955 52 NA NA DIANE 1955-08-16 06:00:00 TS 30.4000 -74.4000 75 hurdat_atl main 516 475 O_____________ hurdat_atl AL031955 30.4000 -74.4000 HU 75 1 9 298
1955219N16319 1955 52 NA NA DIANE 1955-08-16 09:00:00 TS 30.6198 -74.8580 main 469 419 P_____________ AL031955 30.6198 -74.8580 HU 75 1 9 303
1955219N16319 1955 52 NA NA DIANE 1955-08-16 12:00:00 TS 30.9000 -75.3000 75 982 hurdat_atl main 419 360 O_____________ hurdat_atl AL031955 30.9000 -75.3000 HU 75 982 1 10 310
1955219N16319 1955 52 NA NA DIANE 1955-08-16 15:00:00 TS 31.2775 -75.7649 main 355 297 P_____________ AL031955 31.2775 -75.7649 HU 75 982 1 11 316
1955219N16319 1955 52 NA NA DIANE 1955-08-16 18:00:00 TS 31.7000 -76.2000 75 983 hurdat_atl main 297 239 O_____________ hurdat_atl AL031955 31.7000 -76.2000 HU 75 983 1 11 320
1955219N16319 1955 52 NA NA DIANE 1955-08-16 21:00:00 TS 32.1074 -76.5802 main 239 186 P_____________ AL031955 32.1074 -76.5802 HU 72 983 1 10 323
1955219N16319 1955 52 NA NA DIANE 1955-08-17 00:00:00 TS 32.5000 -76.9000 70 984 hurdat_atl main 186 143 O_____________ hurdat_atl AL031955 32.5000 -76.9000 HU 70 984 1 9 326
1955219N16319 1955 52 NA NA DIANE 1955-08-17 03:00:00 TS 32.8498 -77.1655 main 143 95 P_____________ AL031955 32.8498 -77.1655 HU 67 984 1 8 329
1955219N16319 1955 52 NA NA DIANE 1955-08-17 06:00:00 TS 33.2000 -77.4000 65 hurdat_atl main 95 57 I_____________ hurdat_atl AL031955 33.2000 -77.4000 HU 65 984 1 8 331
1955219N16319 1955 52 NA NA DIANE 1955-08-17 09:00:00 TS 33.5700 -77.6504 main 43 9 P_____________ AL031955 33.5700 -77.6504 HU 62 984 0 9 332
1955219N16319 1955 52 NA NA DIANE 1955-08-17 12:00:00 TS 34.0000 -77.9000 60 985 hurdat_atl main 9 0 O_____________ hurdat_atl AL031955 34.0000 -77.9000 L TS 60 985 0 10 335
1955219N16319 1955 52 NA NA DIANE 1955-08-17 15:00:00 TS 34.5050 -78.1650 main 0 0 P_____________ AL031955 34.5050 -78.1650 TS 57 987 0 12 340
1955219N16319 1955 52 NA NA DIANE 1955-08-17 18:00:00 TS 35.1000 -78.4000 55 990 hurdat_atl main 0 0 O_____________ hurdat_atl AL031955 35.1000 -78.4000 TS 55 990 0 13 345
1955219N16319 1955 52 NA NA DIANE 1955-08-17 21:00:00 TS 35.7850 -78.5800 main 0 0 P_____________ AL031955 35.7850 -78.5800 TS 52 991 0 14 350
1955219N16319 1955 52 NA NA DIANE 1955-08-18 00:00:00 TS 36.5000 -78.7000 50 993 hurdat_atl main 0 0 O_____________ hurdat_atl AL031955 36.5000 -78.7000 TS 50 993 0 14 352
1955219N16319 1955 52 NA NA DIANE 1955-08-18 03:00:00 TS 37.1798 -78.8242 main 0 0 P_____________ AL031955 37.1798 -78.8242 TS 47 996 0 13 356
1955219N16319 1955 52 NA NA DIANE 1955-08-18 06:00:00 TS 37.8000 -78.8000 45 999 hurdat_atl main 0 0 O_____________ hurdat_atl AL031955 37.8000 -78.8000 TS 45 999 0 12 11
1955219N16319 1955 52 NA NA DIANE 1955-08-18 09:00:00 TS 38.3373 -78.5477 main 0 0 P_____________ AL031955 38.3373 -78.5477 TS 42 1000 0 11 29
1955219N16319 1955 52 NA NA DIANE 1955-08-18 12:00:00 TS 38.8000 -78.1000 40 1001 hurdat_atl main 0 0 O_____________ hurdat_atl AL031955 38.8000 -78.1000 TS 40 1001 0 12 41
1955219N16319 1955 52 NA NA DIANE 1955-08-18 15:00:00 TS 39.2302 -77.5376 main 0 0 P_____________ AL031955 39.2302 -77.5376 TS 37 1002 0 12 49
1955219N16319 1955 52 NA NA DIANE 1955-08-18 18:00:00 TS 39.6000 -76.9000 35 1004 hurdat_atl main 0 0 O_____________ hurdat_atl AL031955 39.6000 -76.9000 TS 35 1004 0 12 53
1955219N16319 1955 52 NA NA DIANE 1955-08-18 21:00:00 TS 39.9372 -76.2997 main 0 0 P_____________ AL031955 39.9372 -76.2997 TS 35 1003 0 11 57
1955219N16319 1955 52 NA NA DIANE 1955-08-19 00:00:00 TS 40.2000 -75.7000 35 1003 hurdat_atl main 0 0 O_____________ hurdat_atl AL031955 40.2000 -75.7000 TS 35 1003 0 10 64
1955219N16319 1955 52 NA NA DIANE 1955-08-19 03:00:00 TS 40.3793 -75.1217 main 0 0 P_____________ AL031955 40.3793 -75.1217 TS 37 1002 0 10 72
1955219N16319 1955 52 NA NA DIANE 1955-08-19 06:00:00 TS 40.5000 -74.5000 40 1001 hurdat_atl main 0 0 O_____________ hurdat_atl AL031955 40.5000 -74.5000 TS 40 1001 0 10 77
1955219N16319 1955 52 NA NA DIANE 1955-08-19 09:00:00 TS 40.6074 -73.7721 main 0 0 P_____________ AL031955 40.6074 -73.7721 TS 40 999 0 12 80
1955219N16319 1955 52 NA NA DIANE 1955-08-19 12:00:00 TS 40.7000 -73.0000 40 998 hurdat_atl main 8 0 O_____________ hurdat_atl AL031955 40.7000 -73.0000 TS 40 998 0 12 80
1955219N16319 1955 52 NA NA DIANE 1955-08-19 15:00:00 TS 40.8069 -72.2575 main 25 25 P_____________ AL031955 40.8069 -72.2575 TS 40 0 12 80
1955219N16319 1955 52 NA NA DIANE 1955-08-19 18:00:00 TS 40.9000 -71.5000 40 hurdat_atl main 55 55 O_____________ hurdat_atl AL031955 40.9000 -71.5000 TS 40 0 11 83
1955219N16319 1955 52 NA NA DIANE 1955-08-19 21:00:00 TS 40.9481 -70.7666 main 67 55 P_____________ AL031955 40.9481 -70.7666 TS 40 0 12 85
1955219N16319 1955 52 NA NA DIANE 1955-08-20 00:00:00 TS 41.0000 -69.9000 40 hurdat_atl main 78 78 O_____________ hurdat_atl AL031955 41.0000 -69.9000 TS 40 0 15 85
1955219N16319 1955 52 NA NA DIANE 1955-08-20 03:00:00 TS 41.0839 -68.8043 main 120 120 P_____________ AL031955 41.0839 -68.8043 TS 42 0 18 84
1955219N16319 1955 52 NA NA DIANE 1955-08-20 06:00:00 TS 41.2000 -67.5000 45 hurdat_atl main 214 214 O_____________ hurdat_atl AL031955 41.2000 -67.5000 TS 45 0 21 84
1955219N16319 1955 52 NA NA DIANE 1955-08-20 09:00:00 TS 41.3056 -66.0202 main 245 227 P_____________ AL031955 41.3056 -66.0202 TS 45 0 23 82
1955219N16319 1955 52 NA NA DIANE 1955-08-20 12:00:00 TS 41.5000 -64.5000 45 hurdat_atl main 231 229 O_____________ hurdat_atl AL031955 41.5000 -64.5000 TS 45 0 22 75
1955219N16319 1955 52 NA NA DIANE 1955-08-20 15:00:00 TS 41.8657 -63.1799 main 246 246 P_____________ AL031955 41.8657 -63.1799 TS 45 0 22 68
1955219N16319 1955 52 NA NA DIANE 1955-08-20 18:00:00 TS 42.3000 -61.8000 45 hurdat_atl main 274 273 O_____________ hurdat_atl AL031955 42.3000 -61.8000 TS 45 0 23 70
1955219N16319 1955 52 NA NA DIANE 1955-08-20 21:00:00 TS 42.6440 -60.2600 main 295 287 P_____________ AL031955 42.6440 -60.2600 TS 47 0 26 74
1955219N16319 1955 52 NA NA DIANE 1955-08-21 00:00:00 ET 43.0000 -58.4000 50 hurdat_atl main 325 325 O_____________ hurdat_atl AL031955 43.0000 -58.4000 EX 50 -4 31 77
1955219N16319 1955 52 NA NA DIANE 1955-08-21 03:00:00 ET 43.3610 -56.1011 main 379 311 P_____________ AL031955 43.3610 -56.1011 EX 50 -4 36 77
1955219N16319 1955 52 NA NA DIANE 1955-08-21 06:00:00 ET 43.8000 -53.5000 50 hurdat_atl main 311 292 O_____________ hurdat_atl AL031955 43.8000 -53.5000 EX 50 -4 39 76
1955219N16319 1955 52 NA NA DIANE 1955-08-21 09:00:00 ET 44.3045 -50.8208 main 316 316 P_____________ AL031955 44.3045 -50.8208 EX 50 -4 41 73
1955219N16319 1955 52 NA NA DIANE 1955-08-21 12:00:00 ET 45.0000 -48.0000 50 hurdat_atl main 434 434 O_____________ hurdat_atl AL031955 45.0000 -48.0000 EX 50 -4 44 68
1955219N16319 1955 52 NA NA DIANE 1955-08-21 15:00:00 ET 45.9357 -45.0372 main 603 603 P_____________ AL031955 45.9357 -45.0372 EX 50 -4 46 64
1955219N16319 1955 52 NA NA DIANE 1955-08-21 18:00:00 ET 47.0000 -42.0000 50 hurdat_atl main 797 797 O_____________ hurdat_atl AL031955 47.0000 -42.0000 EX 50 -4 47 66
1955219N16319 1955 52 NA NA DIANE 1955-08-21 21:00:00 ET 47.8970 -38.6978 main 1035 1035 P_____________ AL031955 47.8970 -38.6978 EX 52 -4 45 64
1955219N16319 1955 52 NA NA DIANE 1955-08-22 00:00:00 ET 49.0000 -36.0000 55 hurdat_atl main 1232 1185 O_____________ hurdat_atl AL031955 49.0000 -36.0000 EX 55 -4 38 45
1955219N16319 1955 52 NA NA DIANE 1955-08-22 03:00:00 ET 50.6241 -34.6122 main 1178 1017 P_____________ AL031955 50.6241 -34.6122 EX 55 -4 37 20
1955219N16319 1955 52 NA NA DIANE 1955-08-22 06:00:00 ET 52.5000 -34.0000 55 hurdat_atl main 1008 873 O_____________ hurdat_atl AL031955 52.5000 -34.0000 EX 55 -4 38 11
1955219N16319 1955 52 NA NA DIANE 1955-08-22 09:00:00 ET 54.3234 -33.3808 main 864 751 P_____________ AL031955 54.3234 -33.3808 EX 55 -4 35 9
1955219N16319 1955 52 NA NA DIANE 1955-08-22 12:00:00 ET 56.0000 -33.0000 55 hurdat_atl main 743 671 O_____________ hurdat_atl AL031955 56.0000 -33.0000 EX 55 -4 31 7
1955219N16319 1955 52 NA NA DIANE 1955-08-22 15:00:00 ET 57.3618 -32.7053 main 665 626 P_____________ AL031955 57.3618 -32.7053 EX 55 -4 25 6
1955219N16319 1955 52 NA NA DIANE 1955-08-22 18:00:00 ET 58.5000 -32.5000 55 hurdat_atl main 622 593 O_____________ hurdat_atl AL031955 58.5000 -32.5000 EX 55 -4 22 7
1955219N16319 1955 52 NA NA DIANE 1955-08-22 21:00:00 ET 59.5750 -32.2138 main 588 559 P_____________ AL031955 59.5750 -32.2138 EX 52 -4 20 7
1955219N16319 1955 52 NA NA DIANE 1955-08-23 00:00:00 ET 60.5000 -32.0000 50 hurdat_atl main 559 514 O_____________ hurdat_atl AL031955 60.5000 -32.0000 EX 50 -4 17 3
1955219N16319 1955 52 NA NA DIANE 1955-08-23 03:00:00 ET 61.2871 -32.0289 main 507 467 P_____________ AL031955 61.2871 -32.0289 EX 47 -4 15 0
1955219N16319 1955 52 NA NA DIANE 1955-08-23 06:00:00 ET 62.0000 -32.0000 45 hurdat_atl main 467 411 O_____________ hurdat_atl AL031955 62.0000 -32.0000 EX 45 -4 15 7
1955219N16319 1955 52 NA NA DIANE 1955-08-23 09:00:00 ET 62.7493 -31.6473 main 413 356 P_____________ AL031955 62.7493 -31.6473 EX 42 -4 16 17
1955219N16319 1955 52 NA NA DIANE 1955-08-23 12:00:00 ET 63.5000 -31.0000 40 hurdat_atl main 356 299 O_____________ hurdat_atl AL031955 63.5000 -31.0000 EX 40 -4 16 25
1955219N16319 1955 52 NA NA DIANE 1955-08-23 15:00:00 ET 64.2520 -30.0880 main 293 219 P_____________ AL031955 64.2520 -30.0880 EX 37 -4 17 30
1955219N16319 1955 52 NA NA DIANE 1955-08-23 18:00:00 ET 65.0000 -29.0000 35 hurdat_atl main 215 O_____________ hurdat_atl AL031955 65.0000 -29.0000 EX 35 -4 17 32

IBTrACS Databaseについて

本データベースは、米国NOAAが公開する1842年以降の世界の熱帯低気圧のベストトラックデータアーカイブInternational Best Track Archive for Climate Stewardship (IBTrACS)を、ウェブで閲覧しやすい形式に変換したものです。

最終更新日:2021-10-08